sensor_id;sensor_type;location;lat;lon;timestamp;P1;durP1;ratioP1;P2;durP2;ratioP2
77046;SDS011;65977;56.380;44.022;2023-02-22T00:00:38;28.17;;;11.73;;
77046;SDS011;65977;56.380;44.022;2023-02-22T00:03:16;16.30;;;8.57;;
77046;SDS011;65977;56.380;44.022;2023-02-22T00:05:52;19.60;;;10.73;;
77046;SDS011;65977;56.380;44.022;2023-02-22T00:08:23;21.65;;;10.40;;
77046;SDS011;65977;56.380;44.022;2023-02-22T00:10:59;23.55;;;11.10;;
77046;SDS011;65977;56.380;44.022;2023-02-22T00:13:27;21.65;;;10.73;;
77046;SDS011;65977;56.380;44.022;2023-02-22T00:15:56;24.80;;;11.45;;
77046;SDS011;65977;56.380;44.022;2023-02-22T00:18:24;22.75;;;11.27;;
77046;SDS011;65977;56.380;44.022;2023-02-22T00:20:57;18.70;;;9.82;;
77046;SDS011;65977;56.380;44.022;2023-02-22T00:23:27;21.33;;;10.68;;
77046;SDS011;65977;56.380;44.022;2023-02-22T00:25:55;24.15;;;11.85;;
77046;SDS011;65977;56.380;44.022;2023-02-22T00:28:21;20.30;;;10.88;;
77046;SDS011;65977;56.380;44.022;2023-02-22T00:30:50;20.73;;;9.85;;
77046;SDS011;65977;56.380;44.022;2023-02-22T00:33:16;21.42;;;11.82;;
77046;SDS011;65977;56.380;44.022;2023-02-22T00:35:42;24.83;;;11.13;;
77046;SDS011;65977;56.380;44.022;2023-02-22T00:38:12;19.70;;;11.98;;
77046;SDS011;65977;56.380;44.022;2023-02-22T00:40:40;22.17;;;9.60;;
77046;SDS011;65977;56.380;44.022;2023-02-22T00:43:06;22.88;;;11.57;;
77046;SDS011;65977;56.380;44.022;2023-02-22T00:45:34;23.98;;;11.70;;
77046;SDS011;65977;56.380;44.022;2023-02-22T00:48:01;22.30;;;10.48;;
77046;SDS011;65977;56.380;44.022;2023-02-22T00:50:28;22.08;;;10.10;;
77046;SDS011;65977;56.380;44.022;2023-02-22T00:52:56;18.65;;;8.57;;
77046;SDS011;65977;56.380;44.022;2023-02-22T00:55:30;22.95;;;11.85;;
77046;SDS011;65977;56.380;44.022;2023-02-22T00:57:58;19.92;;;10.18;;
77046;SDS011;65977;56.380;44.022;2023-02-22T01:03:11;24.70;;;9.93;;
77046;SDS011;65977;56.380;44.022;2023-02-22T01:05:39;22.80;;;10.55;;
77046;SDS011;65977;56.380;44.022;2023-02-22T01:08:05;16.55;;;8.55;;
77046;SDS011;65977;56.380;44.022;2023-02-22T01:10:33;19.45;;;10.25;;
77046;SDS011;65977;56.380;44.022;2023-02-22T01:12:59;24.98;;;10.77;;
77046;SDS011;65977;56.380;44.022;2023-02-22T01:15:26;20.38;;;10.57;;
77046;SDS011;65977;56.380;44.022;2023-02-22T01:17:55;18.98;;;9.60;;
77046;SDS011;65977;56.380;44.022;2023-02-22T01:20:22;18.52;;;10.00;;
77046;SDS011;65977;56.380;44.022;2023-02-22T01:22:50;21.88;;;10.80;;
77046;SDS011;65977;56.380;44.022;2023-02-22T01:25:19;22.35;;;11.05;;
77046;SDS011;65977;56.380;44.022;2023-02-22T01:27:46;18.80;;;10.18;;
77046;SDS011;65977;56.380;44.022;2023-02-22T01:30:14;24.15;;;12.63;;
77046;SDS011;65977;56.380;44.022;2023-02-22T01:32:41;20.77;;;10.05;;
77046;SDS011;65977;56.380;44.022;2023-02-22T01:35:12;21.55;;;10.90;;
77046;SDS011;65977;56.380;44.022;2023-02-22T01:37:42;22.88;;;11.32;;
77046;SDS011;65977;56.380;44.022;2023-02-22T01:40:10;22.80;;;11.82;;
77046;SDS011;65977;56.380;44.022;2023-02-22T01:42:40;20.13;;;9.77;;
77046;SDS011;65977;56.380;44.022;2023-02-22T01:50:40;20.45;;;10.82;;
77046;SDS011;65977;56.380;44.022;2023-02-22T01:53:10;20.75;;;11.02;;
77046;SDS011;65977;56.380;44.022;2023-02-22T01:55:39;19.33;;;10.30;;
77046;SDS011;65977;56.380;44.022;2023-02-22T01:58:06;19.77;;;9.57;;
77046;SDS011;65977;56.380;44.022;2023-02-22T02:00:33;23.85;;;11.73;;
77046;SDS011;65977;56.380;44.022;2023-02-22T02:03:03;20.35;;;10.93;;
77046;SDS011;65977;56.380;44.022;2023-02-22T02:05:36;22.98;;;10.82;;
77046;SDS011;65977;56.380;44.022;2023-02-22T02:08:18;19.52;;;9.75;;
77046;SDS011;65977;56.380;44.022;2023-02-22T02:10:46;22.38;;;10.50;;
77046;SDS011;65977;56.380;44.022;2023-02-22T02:13:12;20.45;;;11.57;;
77046;SDS011;65977;56.380;44.022;2023-02-22T02:16:00;26.02;;;10.88;;
77046;SDS011;65977;56.380;44.022;2023-02-22T02:18:25;22.23;;;11.15;;
77046;SDS011;65977;56.380;44.022;2023-02-22T02:35:12;26.80;;;11.02;;
77046;SDS011;65977;56.380;44.022;2023-02-22T02:40:25;24.42;;;10.38;;
77046;SDS011;65977;56.380;44.022;2023-02-22T02:48:34;21.50;;;11.13;;
77046;SDS011;65977;56.380;44.022;2023-02-22T02:51:04;20.70;;;10.80;;
77046;SDS011;65977;56.380;44.022;2023-02-22T02:53:37;23.83;;;11.25;;
77046;SDS011;65977;56.380;44.022;2023-02-22T02:56:05;23.48;;;12.00;;
77046;SDS011;65977;56.380;44.022;2023-02-22T02:58:31;19.88;;;11.25;;
77046;SDS011;65977;56.380;44.022;2023-02-22T03:00:59;28.02;;;11.10;;
77046;SDS011;65977;56.380;44.022;2023-02-22T03:12:18;22.23;;;11.98;;
77046;SDS011;65977;56.380;44.022;2023-02-22T03:14:57;23.90;;;11.55;;
77046;SDS011;65977;56.380;44.022;2023-02-22T03:20:14;25.27;;;11.35;;
77046;SDS011;65977;56.380;44.022;2023-02-22T03:22:54;21.90;;;11.00;;
77046;SDS011;65977;56.380;44.022;2023-02-22T03:25:39;24.45;;;11.27;;
77046;SDS011;65977;56.380;44.022;2023-02-22T03:28:11;21.42;;;12.55;;
77046;SDS011;65977;56.380;44.022;2023-02-22T03:30:49;24.85;;;12.00;;
77046;SDS011;65977;56.380;44.022;2023-02-22T03:33:40;28.27;;;11.93;;
77046;SDS011;65977;56.380;44.022;2023-02-22T03:36:18;22.05;;;11.50;;
77046;SDS011;65977;56.380;44.022;2023-02-22T03:38:49;22.10;;;11.20;;
77046;SDS011;65977;56.380;44.022;2023-02-22T03:41:20;19.45;;;9.40;;
77046;SDS011;65977;56.380;44.022;2023-02-22T03:43:50;23.00;;;10.40;;
77046;SDS011;65977;56.380;44.022;2023-02-22T03:46:39;25.30;;;12.70;;
77046;SDS011;65977;56.380;44.022;2023-02-22T03:51:44;22.83;;;11.52;;
77046;SDS011;65977;56.380;44.022;2023-02-22T03:54:11;24.88;;;11.88;;
77046;SDS011;65977;56.380;44.022;2023-02-22T03:57:14;23.50;;;10.85;;
77046;SDS011;65977;56.380;44.022;2023-02-22T03:59:39;23.52;;;10.25;;
77046;SDS011;65977;56.380;44.022;2023-02-22T04:02:05;21.00;;;10.13;;
77046;SDS011;65977;56.380;44.022;2023-02-22T04:04:31;22.75;;;10.90;;
77046;SDS011;65977;56.380;44.022;2023-02-22T04:06:57;25.42;;;12.43;;
77046;SDS011;65977;56.380;44.022;2023-02-22T04:09:22;27.98;;;11.85;;
77046;SDS011;65977;56.380;44.022;2023-02-22T04:11:48;25.40;;;13.82;;
77046;SDS011;65977;56.380;44.022;2023-02-22T04:14:14;21.60;;;11.25;;
77046;SDS011;65977;56.380;44.022;2023-02-22T04:16:39;23.38;;;11.90;;
77046;SDS011;65977;56.380;44.022;2023-02-22T04:19:05;23.90;;;11.77;;
77046;SDS011;65977;56.380;44.022;2023-02-22T04:21:31;26.13;;;11.63;;
77046;SDS011;65977;56.380;44.022;2023-02-22T04:23:57;24.52;;;11.75;;
77046;SDS011;65977;56.380;44.022;2023-02-22T04:26:23;23.45;;;11.40;;
77046;SDS011;65977;56.380;44.022;2023-02-22T04:28:48;21.67;;;11.60;;
77046;SDS011;65977;56.380;44.022;2023-02-22T04:31:14;23.20;;;11.45;;
77046;SDS011;65977;56.380;44.022;2023-02-22T04:33:41;25.17;;;12.20;;
77046;SDS011;65977;56.380;44.022;2023-02-22T04:36:07;23.17;;;11.02;;
77046;SDS011;65977;56.380;44.022;2023-02-22T04:38:33;23.10;;;12.23;;
77046;SDS011;65977;56.380;44.022;2023-02-22T04:40:59;20.65;;;9.55;;
77046;SDS011;65977;56.380;44.022;2023-02-22T04:43:24;20.95;;;10.65;;
77046;SDS011;65977;56.380;44.022;2023-02-22T04:45:50;21.33;;;10.85;;
77046;SDS011;65977;56.380;44.022;2023-02-22T04:48:16;24.20;;;11.15;;
77046;SDS011;65977;56.380;44.022;2023-02-22T04:50:41;21.60;;;10.95;;
77046;SDS011;65977;56.380;44.022;2023-02-22T04:53:07;20.40;;;10.25;;
77046;SDS011;65977;56.380;44.022;2023-02-22T04:55:33;21.73;;;11.57;;
77046;SDS011;65977;56.380;44.022;2023-02-22T04:57:59;23.25;;;10.52;;
77046;SDS011;65977;56.380;44.022;2023-02-22T05:00:24;21.98;;;11.23;;
77046;SDS011;65977;56.380;44.022;2023-02-22T05:02:50;23.35;;;10.98;;
77046;SDS011;65977;56.380;44.022;2023-02-22T05:05:17;22.30;;;10.88;;
77046;SDS011;65977;56.380;44.022;2023-02-22T05:07:45;23.42;;;11.70;;
77046;SDS011;65977;56.380;44.022;2023-02-22T05:10:12;20.23;;;10.80;;
77046;SDS011;65977;56.380;44.022;2023-02-22T05:12:38;24.90;;;12.23;;
77046;SDS011;65977;56.380;44.022;2023-02-22T05:15:05;22.48;;;10.25;;
77046;SDS011;65977;56.380;44.022;2023-02-22T05:17:33;19.83;;;9.65;;
77046;SDS011;65977;56.380;44.022;2023-02-22T05:19:59;19.40;;;11.38;;
77046;SDS011;65977;56.380;44.022;2023-02-22T05:22:25;22.63;;;11.68;;
77046;SDS011;65977;56.380;44.022;2023-02-22T05:24:51;20.30;;;10.23;;
77046;SDS011;65977;56.380;44.022;2023-02-22T05:27:17;16.38;;;8.50;;
77046;SDS011;65977;56.380;44.022;2023-02-22T05:29:43;23.70;;;11.00;;
77046;SDS011;65977;56.380;44.022;2023-02-22T05:32:09;20.35;;;10.25;;
77046;SDS011;65977;56.380;44.022;2023-02-22T05:34:36;18.85;;;10.73;;
77046;SDS011;65977;56.380;44.022;2023-02-22T05:37:02;18.30;;;8.68;;
77046;SDS011;65977;56.380;44.022;2023-02-22T05:39:28;17.73;;;10.05;;
77046;SDS011;65977;56.380;44.022;2023-02-22T05:41:55;15.20;;;8.30;;
77046;SDS011;65977;56.380;44.022;2023-02-22T05:44:21;18.52;;;9.75;;
77046;SDS011;65977;56.380;44.022;2023-02-22T05:46:47;24.55;;;11.02;;
77046;SDS011;65977;56.380;44.022;2023-02-22T05:49:13;19.50;;;10.32;;
77046;SDS011;65977;56.380;44.022;2023-02-22T05:51:39;16.42;;;9.50;;
77046;SDS011;65977;56.380;44.022;2023-02-22T05:54:04;18.27;;;9.30;;
77046;SDS011;65977;56.380;44.022;2023-02-22T05:56:31;15.55;;;8.77;;
77046;SDS011;65977;56.380;44.022;2023-02-22T05:58:56;15.55;;;8.10;;
77046;SDS011;65977;56.380;44.022;2023-02-22T06:01:22;16.38;;;8.82;;
77046;SDS011;65977;56.380;44.022;2023-02-22T06:03:49;16.95;;;8.35;;
77046;SDS011;65977;56.380;44.022;2023-02-22T06:06:16;17.27;;;9.07;;
77046;SDS011;65977;56.380;44.022;2023-02-22T06:08:42;16.42;;;9.15;;
77046;SDS011;65977;56.380;44.022;2023-02-22T06:11:08;15.82;;;7.88;;
77046;SDS011;65977;56.380;44.022;2023-02-22T06:13:34;17.42;;;7.38;;
77046;SDS011;65977;56.380;44.022;2023-02-22T06:16:01;11.40;;;6.45;;
77046;SDS011;65977;56.380;44.022;2023-02-22T06:18:27;12.13;;;7.53;;
77046;SDS011;65977;56.380;44.022;2023-02-22T06:20:55;14.23;;;8.98;;
77046;SDS011;65977;56.380;44.022;2023-02-22T06:23:21;15.30;;;9.23;;
77046;SDS011;65977;56.380;44.022;2023-02-22T06:25:47;16.42;;;9.15;;
77046;SDS011;65977;56.380;44.022;2023-02-22T06:28:13;14.32;;;7.05;;
77046;SDS011;65977;56.380;44.022;2023-02-22T06:30:40;17.83;;;8.90;;
77046;SDS011;65977;56.380;44.022;2023-02-22T06:33:09;20.48;;;8.07;;
77046;SDS011;65977;56.380;44.022;2023-02-22T06:35:35;15.88;;;7.97;;
77046;SDS011;65977;56.380;44.022;2023-02-22T06:38:01;15.27;;;9.10;;
77046;SDS011;65977;56.380;44.022;2023-02-22T06:40:27;18.95;;;10.02;;
77046;SDS011;65977;56.380;44.022;2023-02-22T06:42:54;17.73;;;8.40;;
77046;SDS011;65977;56.380;44.022;2023-02-22T06:45:20;16.58;;;9.20;;
77046;SDS011;65977;56.380;44.022;2023-02-22T06:47:46;18.73;;;7.90;;
77046;SDS011;65977;56.380;44.022;2023-02-22T06:50:18;15.60;;;8.57;;
77046;SDS011;65977;56.380;44.022;2023-02-22T06:52:48;18.15;;;9.55;;
77046;SDS011;65977;56.380;44.022;2023-02-22T06:55:19;18.13;;;9.63;;
77046;SDS011;65977;56.380;44.022;2023-02-22T06:57:50;15.30;;;9.35;;
77046;SDS011;65977;56.380;44.022;2023-02-22T07:00:17;18.15;;;9.18;;
77046;SDS011;65977;56.380;44.022;2023-02-22T07:02:45;16.48;;;9.50;;
77046;SDS011;65977;56.380;44.022;2023-02-22T07:05:12;15.52;;;9.02;;
77046;SDS011;65977;56.380;44.022;2023-02-22T07:07:39;17.02;;;9.43;;
77046;SDS011;65977;56.380;44.022;2023-02-22T07:10:06;15.43;;;8.98;;
77046;SDS011;65977;56.380;44.022;2023-02-22T07:12:33;16.20;;;9.50;;
77046;SDS011;65977;56.380;44.022;2023-02-22T07:14:59;15.48;;;9.55;;
77046;SDS011;65977;56.380;44.022;2023-02-22T07:17:25;13.20;;;8.68;;
77046;SDS011;65977;56.380;44.022;2023-02-22T07:19:51;17.08;;;9.65;;
77046;SDS011;65977;56.380;44.022;2023-02-22T07:22:18;16.55;;;9.05;;
77046;SDS011;65977;56.380;44.022;2023-02-22T07:24:44;15.50;;;9.57;;
77046;SDS011;65977;56.380;44.022;2023-02-22T07:27:09;13.88;;;8.63;;
77046;SDS011;65977;56.380;44.022;2023-02-22T07:29:35;14.75;;;9.45;;
77046;SDS011;65977;56.380;44.022;2023-02-22T07:32:01;18.73;;;10.07;;
77046;SDS011;65977;56.380;44.022;2023-02-22T07:34:27;18.92;;;10.18;;
77046;SDS011;65977;56.380;44.022;2023-02-22T07:36:52;16.15;;;9.85;;
77046;SDS011;65977;56.380;44.022;2023-02-22T07:39:18;16.30;;;9.13;;
77046;SDS011;65977;56.380;44.022;2023-02-22T07:41:44;14.07;;;9.02;;
77046;SDS011;65977;56.380;44.022;2023-02-22T07:44:10;18.98;;;10.38;;
77046;SDS011;65977;56.380;44.022;2023-02-22T07:46:37;13.95;;;9.55;;
77046;SDS011;65977;56.380;44.022;2023-02-22T07:49:02;13.55;;;10.07;;
77046;SDS011;65977;56.380;44.022;2023-02-22T07:51:28;14.80;;;9.35;;
77046;SDS011;65977;56.380;44.022;2023-02-22T07:53:53;16.55;;;10.02;;
77046;SDS011;65977;56.380;44.022;2023-02-22T07:56:19;14.80;;;10.25;;
77046;SDS011;65977;56.380;44.022;2023-02-22T07:58:45;16.83;;;10.02;;
77046;SDS011;65977;56.380;44.022;2023-02-22T08:01:10;14.63;;;9.80;;
77046;SDS011;65977;56.380;44.022;2023-02-22T08:03:36;14.68;;;9.50;;
77046;SDS011;65977;56.380;44.022;2023-02-22T08:06:03;15.23;;;10.48;;
77046;SDS011;65977;56.380;44.022;2023-02-22T08:08:30;17.55;;;10.10;;
77046;SDS011;65977;56.380;44.022;2023-02-22T08:10:56;16.85;;;12.82;;
77046;SDS011;65977;56.380;44.022;2023-02-22T08:13:21;18.52;;;11.55;;
77046;SDS011;65977;56.380;44.022;2023-02-22T08:15:49;16.67;;;10.32;;
77046;SDS011;65977;56.380;44.022;2023-02-22T08:18:17;16.33;;;10.90;;
77046;SDS011;65977;56.380;44.022;2023-02-22T08:20:44;16.75;;;11.00;;
77046;SDS011;65977;56.380;44.022;2023-02-22T08:23:12;15.48;;;9.80;;
77046;SDS011;65977;56.380;44.022;2023-02-22T08:25:39;14.70;;;9.85;;
77046;SDS011;65977;56.380;44.022;2023-02-22T08:28:06;17.05;;;9.95;;
77046;SDS011;65977;56.380;44.022;2023-02-22T08:30:35;14.18;;;9.95;;
77046;SDS011;65977;56.380;44.022;2023-02-22T08:33:02;15.57;;;10.65;;
77046;SDS011;65977;56.380;44.022;2023-02-22T08:35:30;14.45;;;10.13;;
77046;SDS011;65977;56.380;44.022;2023-02-22T08:37:58;14.63;;;9.95;;
77046;SDS011;65977;56.380;44.022;2023-02-22T08:40:26;17.63;;;10.15;;
77046;SDS011;65977;56.380;44.022;2023-02-22T08:42:55;15.63;;;10.65;;
77046;SDS011;65977;56.380;44.022;2023-02-22T08:45:25;16.95;;;10.52;;
77046;SDS011;65977;56.380;44.022;2023-02-22T08:47:52;13.93;;;9.77;;
77046;SDS011;65977;56.380;44.022;2023-02-22T08:52:45;14.98;;;10.80;;
77046;SDS011;65977;56.380;44.022;2023-02-22T08:55:11;18.05;;;10.70;;
77046;SDS011;65977;56.380;44.022;2023-02-22T08:57:38;13.88;;;10.70;;
77046;SDS011;65977;56.380;44.022;2023-02-22T09:00:04;16.75;;;10.40;;
77046;SDS011;65977;56.380;44.022;2023-02-22T09:02:30;15.10;;;10.55;;
77046;SDS011;65977;56.380;44.022;2023-02-22T09:04:56;14.77;;;10.90;;
77046;SDS011;65977;56.380;44.022;2023-02-22T09:07:21;16.58;;;12.27;;
77046;SDS011;65977;56.380;44.022;2023-02-22T09:09:48;16.65;;;11.50;;
77046;SDS011;65977;56.380;44.022;2023-02-22T09:12:14;16.17;;;11.25;;
77046;SDS011;65977;56.380;44.022;2023-02-22T09:14:40;13.55;;;10.57;;
77046;SDS011;65977;56.380;44.022;2023-02-22T09:17:07;12.80;;;10.60;;
77046;SDS011;65977;56.380;44.022;2023-02-22T09:19:33;13.73;;;10.73;;
77046;SDS011;65977;56.380;44.022;2023-02-22T09:21:58;15.70;;;11.18;;
77046;SDS011;65977;56.380;44.022;2023-02-22T09:24:24;15.65;;;11.25;;
77046;SDS011;65977;56.380;44.022;2023-02-22T09:26:51;13.65;;;10.18;;
77046;SDS011;65977;56.380;44.022;2023-02-22T09:29:20;16.10;;;11.95;;
77046;SDS011;65977;56.380;44.022;2023-02-22T09:31:47;12.35;;;9.23;;
77046;SDS011;65977;56.380;44.022;2023-02-22T09:34:14;15.90;;;10.90;;
77046;SDS011;65977;56.380;44.022;2023-02-22T09:36:41;16.15;;;10.57;;
77046;SDS011;65977;56.380;44.022;2023-02-22T09:39:07;14.13;;;10.43;;
77046;SDS011;65977;56.380;44.022;2023-02-22T09:41:37;15.35;;;10.75;;
77046;SDS011;65977;56.380;44.022;2023-02-22T09:47:03;14.88;;;10.32;;
77046;SDS011;65977;56.380;44.022;2023-02-22T09:49:38;13.70;;;9.80;;
77046;SDS011;65977;56.380;44.022;2023-02-22T09:52:22;14.68;;;11.07;;
77046;SDS011;65977;56.380;44.022;2023-02-22T09:54:54;14.77;;;10.45;;
77046;SDS011;65977;56.380;44.022;2023-02-22T09:57:36;19.02;;;10.32;;
77046;SDS011;65977;56.380;44.022;2023-02-22T10:00:11;13.50;;;10.60;;
77046;SDS011;65977;56.380;44.022;2023-02-22T10:02:43;14.35;;;9.77;;
77046;SDS011;65977;56.380;44.022;2023-02-22T10:05:30;18.00;;;11.88;;
77046;SDS011;65977;56.380;44.022;2023-02-22T10:08:02;17.60;;;11.30;;
77046;SDS011;65977;56.380;44.022;2023-02-22T10:10:31;14.27;;;10.98;;
77046;SDS011;65977;56.380;44.022;2023-02-22T10:15:44;13.98;;;10.50;;
77046;SDS011;65977;56.380;44.022;2023-02-22T10:18:44;15.70;;;10.93;;
77046;SDS011;65977;56.380;44.022;2023-02-22T10:21:34;16.20;;;11.02;;
77046;SDS011;65977;56.380;44.022;2023-02-22T10:24:48;15.20;;;10.98;;
77046;SDS011;65977;56.380;44.022;2023-02-22T10:27:03;14.25;;;11.35;;
77046;SDS011;65977;56.380;44.022;2023-02-22T10:31:57;16.38;;;11.48;;
77046;SDS011;65977;56.380;44.022;2023-02-22T10:34:32;15.60;;;10.63;;
77046;SDS011;65977;56.380;44.022;2023-02-22T10:40:33;15.02;;;10.82;;
77046;SDS011;65977;56.380;44.022;2023-02-22T10:42:47;14.63;;;10.68;;
77046;SDS011;65977;56.380;44.022;2023-02-22T10:45:32;16.23;;;11.48;;
77046;SDS011;65977;56.380;44.022;2023-02-22T10:48:08;15.10;;;11.40;;
77046;SDS011;65977;56.380;44.022;2023-02-22T10:50:38;17.10;;;11.48;;
77046;SDS011;65977;56.380;44.022;2023-02-22T10:53:07;13.90;;;10.30;;
77046;SDS011;65977;56.380;44.022;2023-02-22T10:55:34;16.00;;;11.07;;
77046;SDS011;65977;56.380;44.022;2023-02-22T10:58:05;13.32;;;9.85;;
77046;SDS011;65977;56.380;44.022;2023-02-22T11:00:36;16.60;;;10.70;;
77046;SDS011;65977;56.380;44.022;2023-02-22T11:03:05;16.63;;;11.40;;
77046;SDS011;65977;56.380;44.022;2023-02-22T11:05:41;15.63;;;10.77;;
77046;SDS011;65977;56.380;44.022;2023-02-22T11:10:45;14.95;;;9.88;;
77046;SDS011;65977;56.380;44.022;2023-02-22T11:13:16;15.35;;;10.10;;
77046;SDS011;65977;56.380;44.022;2023-02-22T11:15:50;13.38;;;9.23;;
77046;SDS011;65977;56.380;44.022;2023-02-22T11:18:37;13.35;;;9.52;;
77046;SDS011;65977;56.380;44.022;2023-02-22T11:21:06;15.43;;;9.52;;
77046;SDS011;65977;56.380;44.022;2023-02-22T11:23:36;13.48;;;9.35;;
77046;SDS011;65977;56.380;44.022;2023-02-22T11:26:05;13.27;;;8.60;;
77046;SDS011;65977;56.380;44.022;2023-02-22T11:31:14;16.05;;;10.45;;
77046;SDS011;65977;56.380;44.022;2023-02-22T11:33:52;15.65;;;10.35;;
77046;SDS011;65977;56.380;44.022;2023-02-22T11:36:40;14.18;;;9.43;;
77046;SDS011;65977;56.380;44.022;2023-02-22T11:41:49;17.08;;;10.02;;
77046;SDS011;65977;56.380;44.022;2023-02-22T11:44:22;15.50;;;9.68;;
77046;SDS011;65977;56.380;44.022;2023-02-22T11:46:51;15.02;;;9.95;;
77046;SDS011;65977;56.380;44.022;2023-02-22T11:49:20;15.13;;;10.30;;
77046;SDS011;65977;56.380;44.022;2023-02-22T11:55:11;16.50;;;10.00;;
77046;SDS011;65977;56.380;44.022;2023-02-22T11:57:54;16.88;;;9.00;;
77046;SDS011;65977;56.380;44.022;2023-02-22T12:00:50;12.95;;;9.30;;
77046;SDS011;65977;56.380;44.022;2023-02-22T12:03:27;13.55;;;9.00;;
77046;SDS011;65977;56.380;44.022;2023-02-22T12:19:48;15.05;;;8.98;;
77046;SDS011;65977;56.380;44.022;2023-02-22T12:22:29;16.60;;;9.93;;
77046;SDS011;65977;56.380;44.022;2023-02-22T12:25:12;16.50;;;9.00;;
77046;SDS011;65977;56.380;44.022;2023-02-22T12:27:51;16.15;;;8.90;;
77046;SDS011;65977;56.380;44.022;2023-02-22T12:30:38;15.80;;;8.95;;
77046;SDS011;65977;56.380;44.022;2023-02-22T12:33:15;13.27;;;8.55;;
77046;SDS011;65977;56.380;44.022;2023-02-22T12:35:49;15.85;;;8.32;;
77046;SDS011;65977;56.380;44.022;2023-02-22T12:38:29;16.35;;;10.18;;
77046;SDS011;65977;56.380;44.022;2023-02-22T12:41:04;13.07;;;7.50;;
77046;SDS011;65977;56.380;44.022;2023-02-22T12:43:44;13.50;;;8.80;;
77046;SDS011;65977;56.380;44.022;2023-02-22T12:48:56;11.57;;;7.28;;
77046;SDS011;65977;56.380;44.022;2023-02-22T12:57:24;14.77;;;8.25;;
77046;SDS011;65977;56.380;44.022;2023-02-22T13:00:17;13.60;;;7.03;;
77046;SDS011;65977;56.380;44.022;2023-02-22T13:05:46;12.43;;;7.22;;
77046;SDS011;65977;56.380;44.022;2023-02-22T13:21:54;10.77;;;5.43;;
77046;SDS011;65977;56.380;44.022;2023-02-22T13:24:31;13.25;;;6.38;;
77046;SDS011;65977;56.380;44.022;2023-02-22T13:27:20;11.38;;;6.47;;
77046;SDS011;65977;56.380;44.022;2023-02-22T13:29:56;12.40;;;6.10;;
77046;SDS011;65977;56.380;44.022;2023-02-22T13:32:30;12.18;;;5.70;;
77046;SDS011;65977;56.380;44.022;2023-02-22T13:48:36;18.80;;;8.27;;
77046;SDS011;65977;56.380;44.022;2023-02-22T13:51:20;14.73;;;6.57;;
77046;SDS011;65977;56.380;44.022;2023-02-22T13:53:55;15.68;;;7.95;;
77046;SDS011;65977;56.380;44.022;2023-02-22T13:56:26;10.30;;;6.78;;
77046;SDS011;65977;56.380;44.022;2023-02-22T13:58:56;12.10;;;6.93;;
77046;SDS011;65977;56.380;44.022;2023-02-22T14:01:43;12.57;;;7.22;;
77046;SDS011;65977;56.380;44.022;2023-02-22T14:06:44;10.15;;;6.18;;
77046;SDS011;65977;56.380;44.022;2023-02-22T14:09:14;15.70;;;7.70;;
77046;SDS011;65977;56.380;44.022;2023-02-22T14:11:47;7.57;;;5.22;;
77046;SDS011;65977;56.380;44.022;2023-02-22T14:14:18;15.10;;;7.65;;
77046;SDS011;65977;56.380;44.022;2023-02-22T14:17:14;23.95;;;9.10;;
77046;SDS011;65977;56.380;44.022;2023-02-22T14:20:04;25.33;;;11.55;;
77046;SDS011;65977;56.380;44.022;2023-02-22T14:22:57;22.38;;;9.40;;
77046;SDS011;65977;56.380;44.022;2023-02-22T14:25:48;19.38;;;9.45;;
77046;SDS011;65977;56.380;44.022;2023-02-22T14:31:19;19.08;;;9.32;;
77046;SDS011;65977;56.380;44.022;2023-02-22T14:33:51;14.65;;;7.03;;
77046;SDS011;65977;56.380;44.022;2023-02-22T14:47:37;13.52;;;8.32;;
77046;SDS011;65977;56.380;44.022;2023-02-22T14:50:19;16.20;;;7.88;;
77046;SDS011;65977;56.380;44.022;2023-02-22T14:53:35;19.67;;;8.30;;
77046;SDS011;65977;56.380;44.022;2023-02-22T15:01:35;13.13;;;7.30;;
77046;SDS011;65977;56.380;44.022;2023-02-22T15:06:50;16.83;;;8.98;;
77046;SDS011;65977;56.380;44.022;2023-02-22T15:09:24;16.73;;;9.13;;
77046;SDS011;65977;56.380;44.022;2023-02-22T15:14:30;18.13;;;8.68;;
77046;SDS011;65977;56.380;44.022;2023-02-22T15:17:22;12.55;;;7.18;;
77046;SDS011;65977;56.380;44.022;2023-02-22T15:19:50;17.52;;;8.65;;
77046;SDS011;65977;56.380;44.022;2023-02-22T15:22:22;15.07;;;6.63;;
77046;SDS011;65977;56.380;44.022;2023-02-22T15:24:56;18.38;;;7.25;;
77046;SDS011;65977;56.380;44.022;2023-02-22T15:27:25;12.35;;;6.03;;
77046;SDS011;65977;56.380;44.022;2023-02-22T15:29:55;13.55;;;6.93;;
77046;SDS011;65977;56.380;44.022;2023-02-22T15:32:31;12.40;;;5.10;;
77046;SDS011;65977;56.380;44.022;2023-02-22T15:35:19;23.67;;;9.02;;
77046;SDS011;65977;56.380;44.022;2023-02-22T15:37:58;14.05;;;6.22;;
77046;SDS011;65977;56.380;44.022;2023-02-22T15:40:27;12.63;;;6.72;;
77046;SDS011;65977;56.380;44.022;2023-02-22T15:42:59;15.07;;;7.13;;
77046;SDS011;65977;56.380;44.022;2023-02-22T15:45:27;14.80;;;7.28;;
77046;SDS011;65977;56.380;44.022;2023-02-22T15:47:56;9.40;;;5.07;;
77046;SDS011;65977;56.380;44.022;2023-02-22T15:50:26;11.63;;;5.72;;
77046;SDS011;65977;56.380;44.022;2023-02-22T15:55:33;12.52;;;6.57;;
77046;SDS011;65977;56.380;44.022;2023-02-22T16:00:40;17.05;;;9.10;;
77046;SDS011;65977;56.380;44.022;2023-02-22T16:03:09;17.67;;;8.60;;
77046;SDS011;65977;56.380;44.022;2023-02-22T16:05:44;24.65;;;10.25;;
77046;SDS011;65977;56.380;44.022;2023-02-22T16:08:14;22.00;;;8.55;;
77046;SDS011;65977;56.380;44.022;2023-02-22T16:10:56;11.80;;;6.10;;
77046;SDS011;65977;56.380;44.022;2023-02-22T16:13:25;15.60;;;7.35;;
77046;SDS011;65977;56.380;44.022;2023-02-22T16:16:00;17.08;;;7.47;;
77046;SDS011;65977;56.380;44.022;2023-02-22T16:18:44;13.63;;;6.82;;
77046;SDS011;65977;56.380;44.022;2023-02-22T16:21:10;7.88;;;5.35;;
77046;SDS011;65977;56.380;44.022;2023-02-22T16:23:48;15.23;;;7.28;;
77046;SDS011;65977;56.380;44.022;2023-02-22T16:26:26;9.82;;;5.45;;
77046;SDS011;65977;56.380;44.022;2023-02-22T16:29:04;10.70;;;6.18;;
77046;SDS011;65977;56.380;44.022;2023-02-22T16:31:33;9.60;;;5.57;;
77046;SDS011;65977;56.380;44.022;2023-02-22T16:34:09;10.63;;;6.18;;
77046;SDS011;65977;56.380;44.022;2023-02-22T16:37:30;10.52;;;6.38;;
77046;SDS011;65977;56.380;44.022;2023-02-22T16:40:01;16.40;;;7.80;;
77046;SDS011;65977;56.380;44.022;2023-02-22T16:42:50;10.65;;;5.35;;
77046;SDS011;65977;56.380;44.022;2023-02-22T16:45:17;10.07;;;5.15;;
77046;SDS011;65977;56.380;44.022;2023-02-22T16:47:44;5.90;;;3.88;;
77046;SDS011;65977;56.380;44.022;2023-02-22T16:50:10;10.45;;;5.90;;
77046;SDS011;65977;56.380;44.022;2023-02-22T16:52:39;15.15;;;7.47;;
77046;SDS011;65977;56.380;44.022;2023-02-22T16:55:09;11.05;;;6.85;;
77046;SDS011;65977;56.380;44.022;2023-02-22T16:57:38;11.77;;;6.28;;
77046;SDS011;65977;56.380;44.022;2023-02-22T17:00:07;15.38;;;7.45;;
77046;SDS011;65977;56.380;44.022;2023-02-22T17:02:39;9.07;;;5.35;;
77046;SDS011;65977;56.380;44.022;2023-02-22T17:05:05;9.80;;;5.95;;
77046;SDS011;65977;56.380;44.022;2023-02-22T17:07:32;12.38;;;6.57;;
77046;SDS011;65977;56.380;44.022;2023-02-22T17:09:58;15.20;;;7.88;;
77046;SDS011;65977;56.380;44.022;2023-02-22T17:12:24;11.65;;;6.85;;